Time;durP1;ratioP1;P1;durP2;ratioP2;P2;SDS_P1;SDS_P2;PMS_P1;PMS_P2;Temp;Humidity;BMP_temperature;BMP_pressure;BME280_temperature;BME280_humidity;BME280_pressure;Samples;Min_cycle;Max_cycle;Signal;HPM_P1;HPM_P2
2022/09/06 00:03:04;;;;;;;3.50;1.40;;;23.70;42.90;;;;;;21001065;28;20048;-61
2022/09/06 00:13:07;;;;;;;;;;;23.60;43.00;;;;;;21000567;28;20040;-60
2022/09/06 00:23:09;;;;;;;3.63;1.23;;;23.40;42.80;;;;;;20998945;28;20387;-59
2022/09/06 00:33:11;;;;;;;6.27;3.33;;;23.40;43.00;;;;;;20997828;28;20060;-58
2022/09/06 00:43:12;;;;;;;3.57;1.30;;;23.20;43.10;;;;;;20996934;28;20428;-59
2022/09/06 00:53:15;;;;;;;3.30;1.90;;;23.10;43.50;;;;;;20997805;28;20044;-59
2022/09/06 01:03:18;;;;;;;;;;;22.90;43.70;;;;;;20997184;28;20070;-58
2022/09/06 01:13:22;;;;;;;2.17;1.07;;;22.90;43.70;;;;;;20996057;28;19920;-59
2022/09/06 01:23:55;;;;;;;3.70;1.50;;;22.80;43.90;;;;;;20995507;28;20052;-58
2022/09/06 01:34:05;;;;;;;2.95;1.25;;;22.80;43.90;;;;;;20995280;28;20049;-59
2022/09/06 01:44:10;;;;;;;4.53;2.10;;;22.70;44.20;;;;;;20994450;28;20194;-59
2022/09/06 01:54:51;;;;;;;3.05;1.20;;;22.60;44.60;;;;;;20994989;28;20058;-58
2022/09/06 02:05:05;;;;;;;1.53;0.90;;;22.60;44.60;;;;;;21010472;28;20044;-58
2022/09/06 02:15:27;;;;;;;1.90;1.10;;;22.60;44.70;;;;;;21010106;28;20321;-58
2022/09/06 02:25:41;;;;;;;3.45;1.38;;;22.40;44.90;;;;;;21008590;28;20132;-60
2022/09/06 02:35:46;;;;;;;4.13;1.20;;;22.30;45.30;;;;;;21007263;28;20052;-58
2022/09/06 02:45:50;;;;;;;2.83;1.40;;;22.20;45.60;;;;;;21007743;28;20052;-58
2022/09/06 02:55:52;;;;;;;8.73;2.22;;;22.20;46.00;;;;;;21006147;28;20056;-59
2022/09/06 03:05:56;;;;;;;2.90;1.40;;;22.10;45.90;;;;;;21005774;28;20052;-59
2022/09/06 03:15:59;;;;;;;3.57;1.23;;;22.10;45.80;;;;;;21005518;28;20550;-58
2022/09/06 03:26:01;;;;;;;3.50;1.30;;;22.10;45.80;;;;;;21004427;28;20056;-57
2022/09/06 03:36:03;;;;;;;10.60;1.90;;;22.20;45.70;;;;;;21002369;28;20132;-58
2022/09/06 03:46:05;;;;;;;4.20;1.30;;;22.10;45.70;;;;;;21001978;28;20057;-58
2022/09/06 03:56:07;;;;;;;4.38;1.50;;;21.90;46.20;;;;;;21001853;28;20044;-58
2022/09/06 04:06:09;;;;;;;2.80;1.23;;;21.90;46.50;;;;;;21001043;28;20045;-59
2022/09/06 04:16:11;;;;;;;2.85;1.10;;;21.80;46.60;;;;;;20999949;28;20051;-59
2022/09/06 04:26:13;;;;;;;4.13;1.80;;;21.80;46.50;;;;;;21000167;28;20433;-59
2022/09/06 04:36:15;;;;;;;5.50;2.13;;;21.70;46.90;;;;;;20999742;28;20048;-58
2022/09/06 04:46:24;;;;;;;4.30;2.80;;;21.60;47.00;;;;;;20998346;28;20101;-59
2022/09/06 04:56:25;;;;;;;6.50;2.20;;;21.40;47.50;;;;;;20996196;28;20064;-60
2022/09/06 05:06:27;;;;;;;4.30;2.00;;;21.40;47.70;;;;;;20995828;28;20622;-59
2022/09/06 05:16:28;;;;;;;3.17;1.88;;;21.20;48.30;;;;;;20996164;28;20458;-59
2022/09/06 05:26:29;;;;;;;2.90;1.90;;;21.10;48.80;;;;;;20995843;28;20481;-57
2022/09/06 05:36:31;;;;;;;4.75;2.03;;;21.00;49.10;;;;;;21005852;28;20080;-56
2022/09/06 05:46:32;;;;;;;10.05;2.70;;;21.10;49.10;;;;;;21011601;28;20102;-56
2022/09/06 05:56:34;;;;;;;4.05;2.25;;;21.10;49.20;;;;;;21011395;28;20044;-56
2022/09/06 06:06:35;;;;;;;6.30;2.30;;;21.10;49.40;;;;;;21010238;28;20052;-56
2022/09/06 06:16:36;;;;;;;4.90;2.25;;;21.10;49.70;;;;;;20992318;28;20071;-59
2022/09/06 06:26:39;;;;;;;6.60;1.98;;;21.10;49.90;;;;;;21009074;28;20091;-59
2022/09/06 06:36:41;;;;;;;8.15;2.45;;;21.20;50.00;;;;;;21007461;28;20409;-59
2022/09/06 06:46:42;;;;;;;5.35;2.08;;;21.10;50.10;;;;;;21007606;28;20067;-57
2022/09/06 06:56:44;;;;;;;7.90;2.60;;;21.20;49.80;;;;;;21006607;28;20071;-59
2022/09/06 07:06:55;;;;;;;12.80;3.37;;;21.40;49.30;;;;;;21004789;28;20048;-58
2022/09/06 07:16:58;;;;;;;9.60;3.67;;;21.50;49.00;;;;;;21004233;28;20080;-59
2022/09/06 07:26:59;;;;;;;9.10;2.60;;;21.50;48.80;;;;;;21004198;28;20379;-58
2022/09/06 07:37:00;;;;;;;5.93;2.08;;;21.50;49.30;;;;;;21003341;28;20091;-58
2022/09/06 07:47:05;;;;;;;5.13;2.42;;;21.80;48.50;;;;;;21003123;28;20141;-59
2022/09/06 07:57:06;;;;;;;5.63;2.60;;;21.90;48.40;;;;;;21001041;28;20055;-58
2022/09/06 08:07:08;;;;;;;4.35;2.00;;;22.10;48.00;;;;;;21000822;28;20080;-57
2022/09/06 08:17:09;;;;;;;6.38;1.98;;;22.30;47.80;;;;;;20999681;28;20183;-59
2022/09/06 08:27:10;;;;;;;7.20;1.92;;;22.60;47.30;;;;;;20999833;28;20514;-58
2022/09/06 08:37:12;;;;;;;5.93;2.10;;;22.70;47.10;;;;;;20998331;28;20127;-59
2022/09/06 08:47:16;;;;;;;2.87;1.73;;;23.10;46.70;;;;;;20997731;28;20075;-58
2022/09/06 08:57:32;;;;;;;13.88;2.25;;;23.50;46.00;;;;;;20996939;28;20053;-57
2022/09/06 09:07:38;;;;;;;6.07;2.78;;;23.90;45.60;;;;;;20995655;28;20078;-58
2022/09/06 09:17:40;;;;;;;5.70;2.05;;;24.00;45.10;;;;;;20995319;28;20051;-59
2022/09/06 09:27:43;;;;;;;5.40;2.20;;;24.20;44.80;;;;;;20995707;28;20080;-58
2022/09/06 09:37:45;;;;;;;4.38;2.33;;;24.50;46.60;;;;;;20995088;28;20059;-59
2022/09/06 09:47:47;;;;;;;4.00;1.60;;;24.70;45.90;;;;;;20994386;28;20095;-58
2022/09/06 09:57:53;;;;;;;6.33;2.40;;;24.90;45.20;;;;;;20994753;28;20098;-59
2022/09/06 10:07:56;;;;;;;5.00;1.73;;;25.00;44.80;;;;;;20993313;28;20052;-58
2022/09/06 10:17:57;;;;;;;4.30;2.03;;;25.10;43.30;;;;;;20997127;28;20128;-58
2022/09/06 10:28:05;;;;;;;4.67;1.57;;;25.30;42.70;;;;;;21008185;28;20048;-58
2022/09/06 10:38:21;;;;;;;8.68;2.35;;;25.60;40.70;;;;;;21008089;28;20424;-58
2022/09/06 10:48:30;;;;;;;4.72;2.38;;;25.80;40.90;;;;;;21006586;28;20091;-59
2022/09/06 10:58:39;;;;;;;6.70;2.90;;;26.00;39.70;;;;;;21007207;28;20159;-59
2022/09/06 11:08:59;;;;;;;2.97;1.35;;;26.10;38.30;;;;;;21004260;28;20044;-58
2022/09/06 11:19:07;;;;;;;3.47;1.80;;;26.40;37.60;;;;;;21004004;28;20048;-58
2022/09/06 11:29:20;;;;;;;5.07;1.60;;;26.60;37.60;;;;;;21002056;28;20055;-59
2022/09/06 11:39:41;;;;;;;2.58;0.90;;;26.70;37.30;;;;;;21002419;28;20052;-59
2022/09/06 11:49:43;;;;;;;1.70;1.10;;;26.90;36.80;;;;;;21002597;28;20222;-60
2022/09/06 11:59:47;;;;;;;2.80;1.00;;;27.10;37.10;;;;;;21001861;28;20041;-58
2022/09/06 12:09:49;;;;;;;2.60;1.13;;;27.20;37.40;;;;;;20999898;28;20055;-57
2022/09/06 12:19:54;;;;;;;2.35;1.05;;;27.20;37.40;;;;;;20999631;28;20432;-57
2022/09/06 12:30:29;;;;;;;8.00;4.22;;;27.50;36.50;;;;;;20998279;28;20047;-59
2022/09/06 12:40:36;;;;;;;4.47;1.83;;;27.60;36.80;;;;;;20997013;28;20052;-59
2022/09/06 12:50:39;;;;;;;4.45;2.17;;;27.70;36.40;;;;;;20997608;28;20127;-59
2022/09/06 13:00:46;;;;;;;2.80;1.17;;;27.90;36.30;;;;;;20996351;28;20056;-58
2022/09/06 13:10:48;;;;;;;5.15;1.13;;;28.00;35.20;;;;;;20997174;28;20041;-59
2022/09/06 13:21:00;;;;;;;6.53;2.88;;;28.10;34.80;;;;;;20996890;28;20048;-61
2022/09/06 13:31:08;;;;;;;2.78;1.27;;;28.30;34.20;;;;;;20977524;28;20062;-59
2022/09/06 13:41:26;;;;;;;4.13;1.88;;;28.40;34.30;;;;;;20995731;28;20057;-58
2022/09/06 13:51:28;;;;;;;13.75;12.30;;;28.50;33.60;;;;;;20995346;28;20079;-58
2022/09/06 14:01:32;;;;;;;4.32;1.10;;;28.50;34.40;;;;;;21009733;28;20090;-58
2022/09/06 14:11:33;;;;;;;2.80;1.83;;;28.60;33.70;;;;;;21009840;28;20045;-59
2022/09/06 14:21:35;;;;;;;6.05;0.90;;;28.60;33.90;;;;;;21009946;28;20407;-58
2022/09/06 14:31:38;;;;;;;5.43;1.00;;;28.70;32.80;;;;;;21008938;28;20105;-59
2022/09/06 14:41:40;;;;;;;3.72;1.00;;;28.70;32.90;;;;;;21007291;28;20056;-58
2022/09/06 14:51:42;;;;;;;5.10;4.00;;;28.80;32.50;;;;;;20988675;28;20052;-58
2022/09/06 15:01:44;;;;;;;3.72;1.00;;;28.90;33.20;;;;;;21006110;28;20059;-59
2022/09/06 15:11:49;;;;;;;3.38;1.88;;;28.90;32.60;;;;;;21006256;28;20124;-58
2022/09/06 15:21:52;;;;;;;2.63;0.90;;;28.90;31.70;;;;;;20986804;28;20052;-58
2022/09/06 15:31:54;;;;;;;6.80;2.28;;;29.00;31.50;;;;;;21003762;28;20114;-58
2022/09/06 15:41:56;;;;;;;5.38;1.13;;;28.90;30.50;;;;;;21002772;28;20048;-59
2022/09/06 15:52:00;;;;;;;2.15;0.90;;;29.00;28.70;;;;;;21002731;28;20044;-58
2022/09/06 16:02:02;;;;;;;1.70;1.10;;;29.00;29.30;;;;;;21000942;28;20052;-59
2022/09/06 16:12:04;;;;;;;2.03;1.17;;;28.80;30.10;;;;;;21000773;28;20091;-58
2022/09/06 16:22:06;;;;;;;12.35;1.17;;;28.80;30.00;;;;;;20998787;28;20501;-60
2022/09/06 16:32:08;;;;;;;1.73;1.00;;;28.70;30.30;;;;;;20998067;28;20106;-59
2022/09/06 16:42:11;;;;;;;5.20;1.40;;;28.70;31.30;;;;;;20995156;28;20413;-58
2022/09/06 16:52:13;;;;;;;1.65;1.20;;;28.60;29.80;;;;;;20995517;28;20127;-57
2022/09/06 17:02:14;;;;;;;3.72;1.58;;;28.60;32.00;;;;;;20992123;28;20045;-60
2022/09/06 17:12:16;;;;;;;8.07;1.73;;;28.40;31.90;;;;;;20992190;28;20040;-59
2022/09/06 17:22:18;;;;;;;6.05;1.63;;;28.30;32.70;;;;;;20993188;28;20052;-59
2022/09/06 17:32:19;;;;;;;2.63;1.33;;;28.10;33.40;;;;;;20996043;28;20049;-60
2022/09/06 17:42:21;;;;;;;5.13;2.17;;;28.00;32.20;;;;;;20994434;28;20049;-60
2022/09/06 17:52:22;;;;;;;9.05;4.22;;;27.80;33.00;;;;;;20995752;28;20040;-60
2022/09/06 18:02:24;;;;;;;4.35;2.33;;;27.60;34.60;;;;;;20994116;28;20056;-60
2022/09/06 18:12:26;;;;;;;5.40;1.73;;;27.50;35.30;;;;;;20995110;28;20477;-60
2022/09/06 18:22:29;;;;;;;2.13;1.13;;;27.20;37.10;;;;;;20993790;28;20542;-60
2022/09/06 18:32:31;;;;;;;6.13;1.50;;;27.00;37.20;;;;;;20992158;28;20135;-61
2022/09/06 18:42:33;;;;;;;2.55;1.27;;;26.80;37.10;;;;;;20999858;28;20102;-60
2022/09/06 18:52:37;;;;;;;2.35;1.40;;;26.70;35.60;;;;;;21007261;28;20470;-59
2022/09/06 19:02:38;;;;;;;3.67;1.35;;;26.60;33.60;;;;;;20988819;28;20405;-59
2022/09/06 19:12:40;;;;;;;4.68;1.42;;;26.40;31.30;;;;;;21006192;28;20094;-60
2022/09/06 19:22:41;;;;;;;;;;;26.20;30.30;;;;;;21004921;28;20056;-59
2022/09/06 19:32:43;;;;;;;5.57;2.08;;;26.00;31.40;;;;;;21005847;28;20335;-58
2022/09/06 19:42:44;;;;;;;5.33;2.00;;;25.90;32.70;;;;;;21001886;28;20106;-60
2022/09/06 19:52:46;;;;;;;4.07;1.57;;;25.90;33.00;;;;;;21000573;28;20485;-61
2022/09/06 20:02:47;;;;;;;2.67;1.88;;;25.70;33.60;;;;;;21001250;28;20312;-58
2022/09/06 20:12:49;;;;;;;3.17;1.80;;;25.60;34.00;;;;;;21000406;28;20049;-58
2022/09/06 20:22:50;;;;;;;3.25;1.85;;;25.60;34.40;;;;;;21001235;28;20049;-60
2022/09/06 20:32:52;;;;;;;3.65;1.60;;;25.40;34.90;;;;;;20999604;28;20051;-60
2022/09/06 20:42:54;;;;;;;4.90;1.58;;;25.20;35.20;;;;;;20997981;28;20056;-59
2022/09/06 20:52:56;;;;;;;6.90;2.92;;;25.10;35.70;;;;;;20998237;28;20052;-62
2022/09/06 21:02:57;;;;;;;5.13;1.80;;;25.10;36.20;;;;;;20997206;28;20108;-61
2022/09/06 21:12:59;;;;;;;2.23;1.20;;;24.80;36.30;;;;;;20997599;28;20178;-61
2022/09/06 21:23:01;;;;;;;2.70;1.50;;;24.80;36.30;;;;;;20996517;28;20304;-61
2022/09/06 21:33:03;;;;;;;5.70;1.70;;;24.50;37.20;;;;;;20996018;28;20102;-60
2022/09/06 21:43:05;;;;;;;4.40;1.90;;;24.40;37.20;;;;;;20995616;28;20079;-59
2022/09/06 21:53:06;;;;;;;3.53;2.03;;;24.60;36.80;;;;;;20995881;28;20489;-61
2022/09/06 22:03:08;;;;;;;4.97;1.80;;;24.50;36.80;;;;;;20995899;28;20412;-60
2022/09/06 22:13:10;;;;;;;;;;;24.30;36.60;;;;;;20996866;28;20083;-59
2022/09/06 22:23:12;;;;;;;5.15;2.13;;;24.10;36.90;;;;;;21010485;28;19921;-60
2022/09/06 22:33:13;;;;;;;2.40;1.33;;;24.00;37.40;;;;;;21009213;28;20505;-60
2022/09/06 22:43:15;;;;;;;3.60;1.63;;;23.80;37.60;;;;;;21007810;28;20052;-60
2022/09/06 22:53:17;;;;;;;5.40;1.90;;;23.80;37.30;;;;;;21008480;28;20480;-59
2022/09/06 23:03:19;;;;;;;3.67;2.10;;;23.90;36.30;;;;;;21008246;28;20045;-59
2022/09/06 23:13:21;;;;;;;5.20;2.80;;;23.90;35.30;;;;;;21006506;28;20041;-60
2022/09/06 23:23:23;;;;;;;3.40;1.67;;;23.90;34.80;;;;;;21005080;28;20053;-60
2022/09/06 23:33:25;;;;;;;3.33;1.50;;;23.80;35.90;;;;;;21004352;28;20045;-58
2022/09/06 23:43:27;;;;;;;4.97;2.87;;;23.60;36.60;;;;;;20985941;28;20061;-62
2022/09/06 23:53:29;;;;;;;3.70;1.40;;;23.50;35.70;;;;;;21003558;28;20044;-59
